sensor_id;sensor_type;location;lat;lon;timestamp;P1;durP1;ratioP1;P2;durP2;ratioP2
35648;SDS011;21768;48.562;13.414;2022-09-09T00:00:38;4.07;;;1.58;;
35648;SDS011;21768;48.562;13.414;2022-09-09T00:11:23;11.73;;;2.03;;
35648;SDS011;21768;48.562;13.414;2022-09-09T00:13:54;2.55;;;1.75;;
35648;SDS011;21768;48.562;13.414;2022-09-09T00:16:25;3.70;;;1.60;;
35648;SDS011;21768;48.562;13.414;2022-09-09T00:21:38;7.10;;;1.30;;
35648;SDS011;21768;48.562;13.414;2022-09-09T00:24:10;6.32;;;1.42;;
35648;SDS011;21768;48.562;13.414;2022-09-09T00:26:45;2.95;;;1.45;;
35648;SDS011;21768;48.562;13.414;2022-09-09T00:29:25;5.18;;;1.40;;
35648;SDS011;21768;48.562;13.414;2022-09-09T00:32:14;5.07;;;1.33;;
35648;SDS011;21768;48.562;13.414;2022-09-09T00:34:47;1.95;;;1.40;;
35648;SDS011;21768;48.562;13.414;2022-09-09T00:37:14;2.20;;;1.38;;
35648;SDS011;21768;48.562;13.414;2022-09-09T00:39:41;4.85;;;1.83;;
35648;SDS011;21768;48.562;13.414;2022-09-09T00:42:21;7.45;;;3.38;;
35648;SDS011;21768;48.562;13.414;2022-09-09T00:45:38;7.63;;;3.38;;
35648;SDS011;21768;48.562;13.414;2022-09-09T00:58:33;5.63;;;3.20;;
35648;SDS011;21768;48.562;13.414;2022-09-09T01:01:06;6.07;;;3.58;;
35648;SDS011;21768;48.562;13.414;2022-09-09T01:06:30;6.75;;;4.22;;
35648;SDS011;21768;48.562;13.414;2022-09-09T01:12:09;6.35;;;4.32;;
35648;SDS011;21768;48.562;13.414;2022-09-09T01:17:05;12.40;;;5.45;;
35648;SDS011;21768;48.562;13.414;2022-09-09T01:19:43;8.88;;;5.40;;
35648;SDS011;21768;48.562;13.414;2022-09-09T01:25:11;40.30;;;5.75;;
35648;SDS011;21768;48.562;13.414;2022-09-09T01:27:44;90.63;;;6.38;;
35648;SDS011;21768;48.562;13.414;2022-09-09T01:30:14;45.03;;;6.10;;
35648;SDS011;21768;48.562;13.414;2022-09-09T01:32:43;130.38;;;6.85;;
35648;SDS011;21768;48.562;13.414;2022-09-09T01:35:16;64.78;;;6.30;;
35648;SDS011;21768;48.562;13.414;2022-09-09T01:38:04;83.18;;;5.88;;
35648;SDS011;21768;48.562;13.414;2022-09-09T01:40:31;59.17;;;6.03;;
35648;SDS011;21768;48.562;13.414;2022-09-09T01:42:56;73.78;;;5.68;;
35648;SDS011;21768;48.562;13.414;2022-09-09T01:45:22;67.88;;;5.97;;
35648;SDS011;21768;48.562;13.414;2022-09-09T01:47:49;52.45;;;5.78;;
35648;SDS011;21768;48.562;13.414;2022-09-09T01:50:15;82.43;;;5.68;;
35648;SDS011;21768;48.562;13.414;2022-09-09T01:52:41;116.13;;;6.03;;
35648;SDS011;21768;48.562;13.414;2022-09-09T01:55:08;171.77;;;6.43;;
35648;SDS011;21768;48.562;13.414;2022-09-09T02:00:23;254.05;;;8.07;;
35648;SDS011;21768;48.562;13.414;2022-09-09T02:05:56;164.68;;;7.25;;
35648;SDS011;21768;48.562;13.414;2022-09-09T02:08:26;159.85;;;7.68;;
35648;SDS011;21768;48.562;13.414;2022-09-09T02:10:59;50.78;;;6.30;;
35648;SDS011;21768;48.562;13.414;2022-09-09T02:13:40;75.45;;;6.53;;
35648;SDS011;21768;48.562;13.414;2022-09-09T02:19:08;46.15;;;5.82;;
35648;SDS011;21768;48.562;13.414;2022-09-09T02:21:37;54.92;;;6.35;;
35648;SDS011;21768;48.562;13.414;2022-09-09T02:24:06;38.13;;;6.75;;
35648;SDS011;21768;48.562;13.414;2022-09-09T02:26:35;63.90;;;7.15;;
35648;SDS011;21768;48.562;13.414;2022-09-09T02:29:07;131.27;;;7.70;;
35648;SDS011;21768;48.562;13.414;2022-09-09T02:31:37;83.70;;;8.10;;
35648;SDS011;21768;48.562;13.414;2022-09-09T02:34:04;157.10;;;8.73;;
35648;SDS011;21768;48.562;13.414;2022-09-09T02:36:32;79.18;;;8.60;;
35648;SDS011;21768;48.562;13.414;2022-09-09T02:39:00;29.27;;;8.02;;
35648;SDS011;21768;48.562;13.414;2022-09-09T02:41:28;24.15;;;8.13;;
35648;SDS011;21768;48.562;13.414;2022-09-09T02:43:57;32.25;;;8.57;;
35648;SDS011;21768;48.562;13.414;2022-09-09T02:46:45;132.35;;;8.75;;
35648;SDS011;21768;48.562;13.414;2022-09-09T02:52:16;48.47;;;8.50;;
35648;SDS011;21768;48.562;13.414;2022-09-09T02:54:45;42.55;;;8.48;;
35648;SDS011;21768;48.562;13.414;2022-09-09T02:57:27;299.30;;;9.63;;
35648;SDS011;21768;48.562;13.414;2022-09-09T02:59:56;59.95;;;8.63;;
35648;SDS011;21768;48.562;13.414;2022-09-09T03:02:23;51.97;;;8.30;;
35648;SDS011;21768;48.562;13.414;2022-09-09T03:04:49;58.10;;;8.45;;
35648;SDS011;21768;48.562;13.414;2022-09-09T03:07:17;135.45;;;7.07;;
35648;SDS011;21768;48.562;13.414;2022-09-09T03:09:43;38.28;;;7.32;;
35648;SDS011;21768;48.562;13.414;2022-09-09T03:12:09;145.18;;;7.13;;
35648;SDS011;21768;48.562;13.414;2022-09-09T03:14:36;57.20;;;7.22;;
35648;SDS011;21768;48.562;13.414;2022-09-09T03:17:03;102.60;;;7.90;;
35648;SDS011;21768;48.562;13.414;2022-09-09T03:19:29;192.20;;;7.85;;
35648;SDS011;21768;48.562;13.414;2022-09-09T03:21:55;100.72;;;7.78;;
35648;SDS011;21768;48.562;13.414;2022-09-09T03:24:21;83.03;;;8.15;;
35648;SDS011;21768;48.562;13.414;2022-09-09T03:26:47;89.07;;;9.25;;
35648;SDS011;21768;48.562;13.414;2022-09-09T03:29:13;139.63;;;8.43;;
35648;SDS011;21768;48.562;13.414;2022-09-09T03:31:39;60.35;;;7.70;;
35648;SDS011;21768;48.562;13.414;2022-09-09T03:34:05;41.28;;;8.20;;
35648;SDS011;21768;48.562;13.414;2022-09-09T03:36:31;198.55;;;9.63;;
35648;SDS011;21768;48.562;13.414;2022-09-09T03:38:57;94.65;;;7.97;;
35648;SDS011;21768;48.562;13.414;2022-09-09T03:41:24;92.63;;;8.85;;
35648;SDS011;21768;48.562;13.414;2022-09-09T03:43:51;77.18;;;8.85;;
35648;SDS011;21768;48.562;13.414;2022-09-09T03:46:17;37.88;;;11.00;;
35648;SDS011;21768;48.562;13.414;2022-09-09T03:48:43;27.05;;;8.40;;
35648;SDS011;21768;48.562;13.414;2022-09-09T03:51:09;45.90;;;9.15;;
35648;SDS011;21768;48.562;13.414;2022-09-09T03:53:35;106.78;;;9.57;;
35648;SDS011;21768;48.562;13.414;2022-09-09T03:56:02;82.10;;;9.50;;
35648;SDS011;21768;48.562;13.414;2022-09-09T03:58:29;87.75;;;8.98;;
35648;SDS011;21768;48.562;13.414;2022-09-09T04:00:59;156.02;;;10.63;;
35648;SDS011;21768;48.562;13.414;2022-09-09T04:03:26;121.50;;;11.63;;
35648;SDS011;21768;48.562;13.414;2022-09-09T04:05:52;109.00;;;10.38;;
35648;SDS011;21768;48.562;13.414;2022-09-09T04:08:21;268.35;;;12.13;;
35648;SDS011;21768;48.562;13.414;2022-09-09T04:10:49;258.42;;;12.35;;
35648;SDS011;21768;48.562;13.414;2022-09-09T04:13:15;304.15;;;11.90;;
35648;SDS011;21768;48.562;13.414;2022-09-09T04:15:43;168.90;;;11.63;;
35648;SDS011;21768;48.562;13.414;2022-09-09T04:18:10;103.00;;;11.57;;
35648;SDS011;21768;48.562;13.414;2022-09-09T04:20:36;57.00;;;10.77;;
35648;SDS011;21768;48.562;13.414;2022-09-09T04:23:03;90.50;;;10.30;;
35648;SDS011;21768;48.562;13.414;2022-09-09T04:25:30;61.90;;;8.77;;
35648;SDS011;21768;48.562;13.414;2022-09-09T04:27:56;49.33;;;8.82;;
35648;SDS011;21768;48.562;13.414;2022-09-09T04:30:23;44.45;;;10.55;;
35648;SDS011;21768;48.562;13.414;2022-09-09T04:32:50;59.20;;;10.13;;
35648;SDS011;21768;48.562;13.414;2022-09-09T04:35:15;47.42;;;9.93;;
35648;SDS011;21768;48.562;13.414;2022-09-09T04:37:41;71.88;;;10.40;;
35648;SDS011;21768;48.562;13.414;2022-09-09T04:40:07;31.33;;;9.93;;
35648;SDS011;21768;48.562;13.414;2022-09-09T04:42:35;55.22;;;9.95;;
35648;SDS011;21768;48.562;13.414;2022-09-09T04:45:01;15.57;;;9.48;;
35648;SDS011;21768;48.562;13.414;2022-09-09T04:47:27;17.45;;;9.85;;
35648;SDS011;21768;48.562;13.414;2022-09-09T04:49:52;19.88;;;9.40;;
35648;SDS011;21768;48.562;13.414;2022-09-09T04:52:19;21.40;;;9.35;;
35648;SDS011;21768;48.562;13.414;2022-09-09T04:54:45;33.08;;;9.40;;
35648;SDS011;21768;48.562;13.414;2022-09-09T04:57:11;27.30;;;8.80;;
35648;SDS011;21768;48.562;13.414;2022-09-09T04:59:36;20.40;;;9.23;;
35648;SDS011;21768;48.562;13.414;2022-09-09T05:02:04;38.92;;;9.52;;
35648;SDS011;21768;48.562;13.414;2022-09-09T05:04:29;80.57;;;9.52;;
35648;SDS011;21768;48.562;13.414;2022-09-09T05:06:55;51.50;;;9.00;;
35648;SDS011;21768;48.562;13.414;2022-09-09T05:09:20;17.98;;;8.95;;
35648;SDS011;21768;48.562;13.414;2022-09-09T05:11:46;39.67;;;8.90;;
35648;SDS011;21768;48.562;13.414;2022-09-09T05:14:11;45.67;;;9.15;;
35648;SDS011;21768;48.562;13.414;2022-09-09T05:16:37;25.50;;;9.30;;
35648;SDS011;21768;48.562;13.414;2022-09-09T05:19:02;37.95;;;8.77;;
35648;SDS011;21768;48.562;13.414;2022-09-09T05:21:28;19.48;;;8.40;;
35648;SDS011;21768;48.562;13.414;2022-09-09T05:23:55;27.58;;;9.27;;
35648;SDS011;21768;48.562;13.414;2022-09-09T05:26:22;131.68;;;9.55;;
35648;SDS011;21768;48.562;13.414;2022-09-09T05:28:48;37.95;;;9.27;;
35648;SDS011;21768;48.562;13.414;2022-09-09T05:31:13;28.05;;;9.65;;
35648;SDS011;21768;48.562;13.414;2022-09-09T05:33:41;36.58;;;9.52;;
35648;SDS011;21768;48.562;13.414;2022-09-09T05:36:12;20.15;;;9.60;;
35648;SDS011;21768;48.562;13.414;2022-09-09T05:38:39;14.27;;;8.30;;
35648;SDS011;21768;48.562;13.414;2022-09-09T05:41:06;13.00;;;7.90;;
35648;SDS011;21768;48.562;13.414;2022-09-09T05:43:32;14.43;;;8.00;;
35648;SDS011;21768;48.562;13.414;2022-09-09T05:45:58;12.63;;;7.65;;
35648;SDS011;21768;48.562;13.414;2022-09-09T05:48:32;11.95;;;7.95;;
35648;SDS011;21768;48.562;13.414;2022-09-09T05:50:59;15.23;;;7.78;;
35648;SDS011;21768;48.562;13.414;2022-09-09T05:53:26;18.38;;;8.30;;
35648;SDS011;21768;48.562;13.414;2022-09-09T05:56:02;14.05;;;8.07;;
35648;SDS011;21768;48.562;13.414;2022-09-09T05:58:34;12.15;;;8.30;;
35648;SDS011;21768;48.562;13.414;2022-09-09T06:01:00;14.05;;;7.82;;
35648;SDS011;21768;48.562;13.414;2022-09-09T06:03:32;14.43;;;9.15;;
35648;SDS011;21768;48.562;13.414;2022-09-09T06:06:01;15.57;;;8.35;;
35648;SDS011;21768;48.562;13.414;2022-09-09T06:08:35;16.50;;;9.02;;
35648;SDS011;21768;48.562;13.414;2022-09-09T06:11:03;13.00;;;8.10;;
35648;SDS011;21768;48.562;13.414;2022-09-09T06:13:30;15.05;;;8.45;;
35648;SDS011;21768;48.562;13.414;2022-09-09T06:15:56;13.57;;;8.10;;
35648;SDS011;21768;48.562;13.414;2022-09-09T06:18:23;12.50;;;7.50;;
35648;SDS011;21768;48.562;13.414;2022-09-09T06:20:53;14.15;;;8.10;;
35648;SDS011;21768;48.562;13.414;2022-09-09T06:23:22;13.27;;;8.20;;
35648;SDS011;21768;48.562;13.414;2022-09-09T06:25:48;19.15;;;9.20;;
35648;SDS011;21768;48.562;13.414;2022-09-09T06:28:14;16.65;;;9.57;;
35648;SDS011;21768;48.562;13.414;2022-09-09T06:30:40;20.65;;;9.73;;
35648;SDS011;21768;48.562;13.414;2022-09-09T06:33:06;19.30;;;9.30;;
35648;SDS011;21768;48.562;13.414;2022-09-09T06:35:31;15.85;;;9.00;;
35648;SDS011;21768;48.562;13.414;2022-09-09T06:37:57;15.82;;;9.82;;
35648;SDS011;21768;48.562;13.414;2022-09-09T06:40:23;14.95;;;8.98;;
35648;SDS011;21768;48.562;13.414;2022-09-09T06:42:49;17.70;;;9.30;;
35648;SDS011;21768;48.562;13.414;2022-09-09T06:45:14;17.92;;;9.95;;
35648;SDS011;21768;48.562;13.414;2022-09-09T06:47:40;21.00;;;9.43;;
35648;SDS011;21768;48.562;13.414;2022-09-09T06:50:06;24.88;;;9.40;;
35648;SDS011;21768;48.562;13.414;2022-09-09T06:52:32;17.23;;;9.23;;
35648;SDS011;21768;48.562;13.414;2022-09-09T06:54:58;16.35;;;8.82;;
35648;SDS011;21768;48.562;13.414;2022-09-09T06:57:24;19.75;;;8.95;;
35648;SDS011;21768;48.562;13.414;2022-09-09T06:59:49;12.75;;;8.23;;
35648;SDS011;21768;48.562;13.414;2022-09-09T07:02:15;14.98;;;8.40;;
35648;SDS011;21768;48.562;13.414;2022-09-09T07:04:41;13.63;;;8.65;;
35648;SDS011;21768;48.562;13.414;2022-09-09T07:07:06;15.88;;;8.48;;
35648;SDS011;21768;48.562;13.414;2022-09-09T07:09:33;12.75;;;7.72;;
35648;SDS011;21768;48.562;13.414;2022-09-09T07:11:58;12.95;;;8.43;;
35648;SDS011;21768;48.562;13.414;2022-09-09T07:14:24;11.85;;;7.38;;
35648;SDS011;21768;48.562;13.414;2022-09-09T07:16:50;12.85;;;8.10;;
35648;SDS011;21768;48.562;13.414;2022-09-09T07:19:15;12.77;;;7.70;;
35648;SDS011;21768;48.562;13.414;2022-09-09T07:21:41;16.65;;;8.35;;
35648;SDS011;21768;48.562;13.414;2022-09-09T07:24:07;14.77;;;8.23;;
35648;SDS011;21768;48.562;13.414;2022-09-09T07:26:35;12.77;;;8.10;;
35648;SDS011;21768;48.562;13.414;2022-09-09T07:29:01;13.68;;;8.05;;
35648;SDS011;21768;48.562;13.414;2022-09-09T07:31:27;17.52;;;8.13;;
35648;SDS011;21768;48.562;13.414;2022-09-09T07:33:58;14.82;;;8.60;;
35648;SDS011;21768;48.562;13.414;2022-09-09T07:36:28;13.18;;;7.75;;
35648;SDS011;21768;48.562;13.414;2022-09-09T07:38:58;13.27;;;7.80;;
35648;SDS011;21768;48.562;13.414;2022-09-09T07:41:28;13.48;;;8.07;;
35648;SDS011;21768;48.562;13.414;2022-09-09T07:43:57;17.05;;;8.32;;
35648;SDS011;21768;48.562;13.414;2022-09-09T07:46:24;14.88;;;7.90;;
35648;SDS011;21768;48.562;13.414;2022-09-09T07:48:54;14.02;;;7.90;;
35648;SDS011;21768;48.562;13.414;2022-09-09T07:51:40;14.30;;;7.20;;
35648;SDS011;21768;48.562;13.414;2022-09-09T07:54:08;14.60;;;6.93;;
35648;SDS011;21768;48.562;13.414;2022-09-09T07:56:36;15.10;;;7.28;;
35648;SDS011;21768;48.562;13.414;2022-09-09T07:59:03;12.43;;;7.13;;
35648;SDS011;21768;48.562;13.414;2022-09-09T08:04:00;10.82;;;6.63;;
35648;SDS011;21768;48.562;13.414;2022-09-09T08:06:28;13.90;;;7.35;;
35648;SDS011;21768;48.562;13.414;2022-09-09T08:08:58;10.65;;;6.55;;
35648;SDS011;21768;48.562;13.414;2022-09-09T08:11:24;15.45;;;7.25;;
35648;SDS011;21768;48.562;13.414;2022-09-09T08:13:51;17.83;;;6.57;;
35648;SDS011;21768;48.562;13.414;2022-09-09T08:16:18;9.73;;;7.10;;
35648;SDS011;21768;48.562;13.414;2022-09-09T08:18:51;14.95;;;7.97;;
35648;SDS011;21768;48.562;13.414;2022-09-09T08:21:19;13.65;;;6.97;;
35648;SDS011;21768;48.562;13.414;2022-09-09T08:23:50;14.15;;;6.30;;
35648;SDS011;21768;48.562;13.414;2022-09-09T08:26:21;12.40;;;6.10;;
35648;SDS011;21768;48.562;13.414;2022-09-09T08:28:51;11.15;;;5.88;;
35648;SDS011;21768;48.562;13.414;2022-09-09T08:31:19;14.18;;;6.95;;
35648;SDS011;21768;48.562;13.414;2022-09-09T08:33:46;10.57;;;5.70;;
35648;SDS011;21768;48.562;13.414;2022-09-09T08:36:16;10.30;;;6.15;;
35648;SDS011;21768;48.562;13.414;2022-09-09T08:38:46;9.35;;;6.28;;
35648;SDS011;21768;48.562;13.414;2022-09-09T08:47:24;9.65;;;6.15;;
35648;SDS011;21768;48.562;13.414;2022-09-09T08:50:05;13.70;;;6.30;;
35648;SDS011;21768;48.562;13.414;2022-09-09T08:57:54;9.23;;;5.55;;
35648;SDS011;21768;48.562;13.414;2022-09-09T09:00:22;9.23;;;5.93;;
35648;SDS011;21768;48.562;13.414;2022-09-09T09:03:18;10.73;;;5.78;;
35648;SDS011;21768;48.562;13.414;2022-09-09T09:05:47;9.55;;;5.82;;
35648;SDS011;21768;48.562;13.414;2022-09-09T09:10:56;9.27;;;5.18;;
35648;SDS011;21768;48.562;13.414;2022-09-09T09:19:01;8.25;;;4.78;;
35648;SDS011;21768;48.562;13.414;2022-09-09T09:24:40;8.93;;;4.65;;
35648;SDS011;21768;48.562;13.414;2022-09-09T09:27:12;8.30;;;4.90;;
35648;SDS011;21768;48.562;13.414;2022-09-09T09:29:39;7.88;;;4.82;;
35648;SDS011;21768;48.562;13.414;2022-09-09T09:32:10;6.18;;;4.55;;
35648;SDS011;21768;48.562;13.414;2022-09-09T09:34:41;7.15;;;4.70;;
35648;SDS011;21768;48.562;13.414;2022-09-09T09:37:12;8.10;;;4.22;;
35648;SDS011;21768;48.562;13.414;2022-09-09T09:39:45;7.38;;;4.35;;
35648;SDS011;21768;48.562;13.414;2022-09-09T09:42:11;6.72;;;3.50;;
35648;SDS011;21768;48.562;13.414;2022-09-09T09:44:42;11.65;;;3.97;;
35648;SDS011;21768;48.562;13.414;2022-09-09T09:49:37;5.22;;;2.42;;
35648;SDS011;21768;48.562;13.414;2022-09-09T09:52:03;4.78;;;1.95;;
35648;SDS011;21768;48.562;13.414;2022-09-09T09:54:32;4.70;;;2.50;;
35648;SDS011;21768;48.562;13.414;2022-09-09T09:57:12;7.65;;;2.90;;
35648;SDS011;21768;48.562;13.414;2022-09-09T09:59:40;6.05;;;3.05;;
35648;SDS011;21768;48.562;13.414;2022-09-09T10:04:44;6.30;;;3.88;;
35648;SDS011;21768;48.562;13.414;2022-09-09T10:07:28;11.75;;;4.43;;
35648;SDS011;21768;48.562;13.414;2022-09-09T10:09:55;6.10;;;3.80;;
35648;SDS011;21768;48.562;13.414;2022-09-09T10:15:21;6.28;;;3.80;;
35648;SDS011;21768;48.562;13.414;2022-09-09T10:18:15;6.55;;;4.10;;
35648;SDS011;21768;48.562;13.414;2022-09-09T10:26:58;10.45;;;4.35;;
35648;SDS011;21768;48.562;13.414;2022-09-09T10:35:11;5.57;;;3.05;;
35648;SDS011;21768;48.562;13.414;2022-09-09T10:38:10;7.65;;;3.55;;
35648;SDS011;21768;48.562;13.414;2022-09-09T10:48:58;7.53;;;3.78;;
35648;SDS011;21768;48.562;13.414;2022-09-09T10:52:02;6.53;;;2.63;;
35648;SDS011;21768;48.562;13.414;2022-09-09T10:57:29;12.18;;;3.72;;
35648;SDS011;21768;48.562;13.414;2022-09-09T11:00:22;14.70;;;3.53;;
35648;SDS011;21768;48.562;13.414;2022-09-09T11:03:03;8.95;;;3.47;;
35648;SDS011;21768;48.562;13.414;2022-09-09T11:13:26;9.82;;;3.78;;
35648;SDS011;21768;48.562;13.414;2022-09-09T11:16:00;10.98;;;3.30;;
35648;SDS011;21768;48.562;13.414;2022-09-09T11:18:44;6.93;;;3.53;;
35648;SDS011;21768;48.562;13.414;2022-09-09T11:21:20;8.07;;;3.80;;
35648;SDS011;21768;48.562;13.414;2022-09-09T11:23:56;13.30;;;4.22;;
35648;SDS011;21768;48.562;13.414;2022-09-09T11:26:31;9.20;;;3.92;;
35648;SDS011;21768;48.562;13.414;2022-09-09T11:42:35;7.88;;;3.50;;
35648;SDS011;21768;48.562;13.414;2022-09-09T11:45:21;8.85;;;3.95;;
35648;SDS011;21768;48.562;13.414;2022-09-09T11:47:51;5.97;;;3.85;;
35648;SDS011;21768;48.562;13.414;2022-09-09T11:52:44;9.95;;;4.30;;
35648;SDS011;21768;48.562;13.414;2022-09-09T11:55:34;7.75;;;3.92;;
35648;SDS011;21768;48.562;13.414;2022-09-09T12:05:59;6.60;;;3.67;;
35648;SDS011;21768;48.562;13.414;2022-09-09T12:08:34;11.35;;;4.47;;
35648;SDS011;21768;48.562;13.414;2022-09-09T12:11:02;9.50;;;4.13;;
35648;SDS011;21768;48.562;13.414;2022-09-09T12:13:29;10.70;;;4.07;;
35648;SDS011;21768;48.562;13.414;2022-09-09T12:15:57;11.82;;;3.95;;
35648;SDS011;21768;48.562;13.414;2022-09-09T12:18:34;7.28;;;3.47;;
35648;SDS011;21768;48.562;13.414;2022-09-09T12:23:30;11.93;;;3.72;;
35648;SDS011;21768;48.562;13.414;2022-09-09T12:36:42;9.98;;;4.05;;
35648;SDS011;21768;48.562;13.414;2022-09-09T12:39:19;6.40;;;3.58;;
35648;SDS011;21768;48.562;13.414;2022-09-09T12:41:53;5.60;;;3.67;;
35648;SDS011;21768;48.562;13.414;2022-09-09T12:44:22;6.28;;;3.30;;
35648;SDS011;21768;48.562;13.414;2022-09-09T12:46:49;8.27;;;3.28;;
35648;SDS011;21768;48.562;13.414;2022-09-09T12:52:07;5.55;;;2.97;;
35648;SDS011;21768;48.562;13.414;2022-09-09T12:54:43;9.88;;;3.60;;
35648;SDS011;21768;48.562;13.414;2022-09-09T12:57:12;5.30;;;3.10;;
35648;SDS011;21768;48.562;13.414;2022-09-09T12:59:40;14.73;;;5.82;;
35648;SDS011;21768;48.562;13.414;2022-09-09T13:02:23;15.88;;;6.75;;
35648;SDS011;21768;48.562;13.414;2022-09-09T13:04:51;7.00;;;4.00;;
35648;SDS011;21768;48.562;13.414;2022-09-09T13:07:18;7.15;;;4.00;;
35648;SDS011;21768;48.562;13.414;2022-09-09T13:09:45;11.27;;;5.75;;
35648;SDS011;21768;48.562;13.414;2022-09-09T13:12:13;12.52;;;5.60;;
35648;SDS011;21768;48.562;13.414;2022-09-09T13:14:42;6.10;;;3.47;;
35648;SDS011;21768;48.562;13.414;2022-09-09T13:17:15;6.82;;;3.17;;
35648;SDS011;21768;48.562;13.414;2022-09-09T13:19:44;7.43;;;2.80;;
35648;SDS011;21768;48.562;13.414;2022-09-09T13:22:14;7.75;;;2.85;;
35648;SDS011;21768;48.562;13.414;2022-09-09T13:24:44;5.80;;;2.97;;
35648;SDS011;21768;48.562;13.414;2022-09-09T13:29:55;9.50;;;3.88;;
35648;SDS011;21768;48.562;13.414;2022-09-09T13:32:21;10.85;;;3.20;;
35648;SDS011;21768;48.562;13.414;2022-09-09T13:34:51;6.72;;;3.25;;
35648;SDS011;21768;48.562;13.414;2022-09-09T13:39:50;9.88;;;3.40;;
35648;SDS011;21768;48.562;13.414;2022-09-09T13:42:39;5.35;;;3.13;;
35648;SDS011;21768;48.562;13.414;2022-09-09T13:45:14;6.38;;;2.75;;
35648;SDS011;21768;48.562;13.414;2022-09-09T13:47:46;6.50;;;3.13;;
35648;SDS011;21768;48.562;13.414;2022-09-09T13:50:20;5.28;;;2.65;;
35648;SDS011;21768;48.562;13.414;2022-09-09T13:52:55;5.50;;;3.00;;
35648;SDS011;21768;48.562;13.414;2022-09-09T13:55:23;4.40;;;3.05;;
35648;SDS011;21768;48.562;13.414;2022-09-09T13:58:00;4.65;;;2.88;;
35648;SDS011;21768;48.562;13.414;2022-09-09T14:00:29;5.55;;;2.97;;
35648;SDS011;21768;48.562;13.414;2022-09-09T14:02:55;5.63;;;3.38;;
35648;SDS011;21768;48.562;13.414;2022-09-09T14:05:21;4.63;;;2.70;;
35648;SDS011;21768;48.562;13.414;2022-09-09T14:07:47;6.88;;;2.92;;
35648;SDS011;21768;48.562;13.414;2022-09-09T14:10:14;5.85;;;3.20;;
35648;SDS011;21768;48.562;13.414;2022-09-09T14:12:40;6.50;;;3.00;;
35648;SDS011;21768;48.562;13.414;2022-09-09T14:15:06;6.05;;;3.00;;
35648;SDS011;21768;48.562;13.414;2022-09-09T14:17:35;5.93;;;3.67;;
35648;SDS011;21768;48.562;13.414;2022-09-09T14:20:02;6.75;;;3.60;;
35648;SDS011;21768;48.562;13.414;2022-09-09T14:22:31;5.50;;;2.88;;
35648;SDS011;21768;48.562;13.414;2022-09-09T14:24:56;7.90;;;3.50;;
35648;SDS011;21768;48.562;13.414;2022-09-09T14:27:22;8.38;;;3.47;;
35648;SDS011;21768;48.562;13.414;2022-09-09T14:29:48;4.95;;;2.80;;
35648;SDS011;21768;48.562;13.414;2022-09-09T14:32:13;9.35;;;3.58;;
35648;SDS011;21768;48.562;13.414;2022-09-09T14:34:38;4.18;;;2.80;;
35648;SDS011;21768;48.562;13.414;2022-09-09T14:37:04;4.97;;;2.40;;
35648;SDS011;21768;48.562;13.414;2022-09-09T14:39:29;8.48;;;2.70;;
35648;SDS011;21768;48.562;13.414;2022-09-09T14:41:55;8.02;;;2.40;;
35648;SDS011;21768;48.562;13.414;2022-09-09T14:44:21;6.07;;;2.17;;
35648;SDS011;21768;48.562;13.414;2022-09-09T14:46:46;4.05;;;2.25;;
35648;SDS011;21768;48.562;13.414;2022-09-09T14:49:12;5.97;;;2.15;;
35648;SDS011;21768;48.562;13.414;2022-09-09T14:51:37;3.67;;;2.47;;
35648;SDS011;21768;48.562;13.414;2022-09-09T14:54:04;4.35;;;2.47;;
35648;SDS011;21768;48.562;13.414;2022-09-09T14:56:30;4.68;;;2.90;;
35648;SDS011;21768;48.562;13.414;2022-09-09T14:58:59;5.97;;;2.90;;
35648;SDS011;21768;48.562;13.414;2022-09-09T15:01:29;5.25;;;2.22;;
35648;SDS011;21768;48.562;13.414;2022-09-09T15:03:56;3.92;;;2.45;;
35648;SDS011;21768;48.562;13.414;2022-09-09T15:06:27;3.88;;;2.10;;
35648;SDS011;21768;48.562;13.414;2022-09-09T15:08:54;4.90;;;2.38;;
35648;SDS011;21768;48.562;13.414;2022-09-09T15:11:23;4.72;;;2.58;;
35648;SDS011;21768;48.562;13.414;2022-09-09T15:13:51;3.22;;;2.33;;
35648;SDS011;21768;48.562;13.414;2022-09-09T15:16:19;6.50;;;2.63;;
35648;SDS011;21768;48.562;13.414;2022-09-09T15:18:46;8.40;;;2.90;;
35648;SDS011;21768;48.562;13.414;2022-09-09T15:21:17;5.82;;;2.80;;
35648;SDS011;21768;48.562;13.414;2022-09-09T15:23:44;5.07;;;3.13;;
35648;SDS011;21768;48.562;13.414;2022-09-09T15:26:11;8.65;;;4.80;;
35648;SDS011;21768;48.562;13.414;2022-09-09T15:28:39;7.50;;;4.70;;
35648;SDS011;21768;48.562;13.414;2022-09-09T15:31:07;6.60;;;4.32;;
35648;SDS011;21768;48.562;13.414;2022-09-09T15:33:36;9.88;;;6.43;;
35648;SDS011;21768;48.562;13.414;2022-09-09T15:36:15;7.20;;;4.60;;
35648;SDS011;21768;48.562;13.414;2022-09-09T15:38:41;7.85;;;5.45;;
35648;SDS011;21768;48.562;13.414;2022-09-09T15:41:06;6.88;;;4.80;;
35648;SDS011;21768;48.562;13.414;2022-09-09T15:43:32;8.00;;;5.25;;
35648;SDS011;21768;48.562;13.414;2022-09-09T15:45:58;8.50;;;5.03;;
35648;SDS011;21768;48.562;13.414;2022-09-09T15:48:31;8.93;;;5.88;;
35648;SDS011;21768;48.562;13.414;2022-09-09T15:51:03;10.20;;;5.47;;
35648;SDS011;21768;48.562;13.414;2022-09-09T15:53:29;8.80;;;5.28;;
35648;SDS011;21768;48.562;13.414;2022-09-09T15:55:57;7.85;;;4.78;;
35648;SDS011;21768;48.562;13.414;2022-09-09T15:58:24;11.90;;;5.35;;
35648;SDS011;21768;48.562;13.414;2022-09-09T16:00:49;14.38;;;5.03;;
35648;SDS011;21768;48.562;13.414;2022-09-09T16:03:15;18.77;;;10.15;;
35648;SDS011;21768;48.562;13.414;2022-09-09T16:05:40;11.07;;;5.65;;
35648;SDS011;21768;48.562;13.414;2022-09-09T16:08:06;12.43;;;5.28;;
35648;SDS011;21768;48.562;13.414;2022-09-09T16:10:31;9.52;;;5.32;;
35648;SDS011;21768;48.562;13.414;2022-09-09T16:12:57;8.23;;;5.50;;
35648;SDS011;21768;48.562;13.414;2022-09-09T16:15:22;7.95;;;5.95;;
35648;SDS011;21768;48.562;13.414;2022-09-09T16:17:48;10.40;;;5.40;;
35648;SDS011;21768;48.562;13.414;2022-09-09T16:20:14;9.77;;;6.13;;
35648;SDS011;21768;48.562;13.414;2022-09-09T16:22:39;10.13;;;5.35;;
35648;SDS011;21768;48.562;13.414;2022-09-09T16:25:05;8.38;;;5.55;;
35648;SDS011;21768;48.562;13.414;2022-09-09T16:27:31;7.95;;;5.45;;
35648;SDS011;21768;48.562;13.414;2022-09-09T16:29:56;8.50;;;5.35;;
35648;SDS011;21768;48.562;13.414;2022-09-09T16:32:22;10.98;;;5.72;;
35648;SDS011;21768;48.562;13.414;2022-09-09T16:34:48;7.97;;;5.70;;
35648;SDS011;21768;48.562;13.414;2022-09-09T16:37:13;11.77;;;6.28;;
35648;SDS011;21768;48.562;13.414;2022-09-09T16:39:38;8.93;;;5.90;;
35648;SDS011;21768;48.562;13.414;2022-09-09T16:42:04;8.15;;;5.32;;
35648;SDS011;21768;48.562;13.414;2022-09-09T16:44:29;8.93;;;5.88;;
35648;SDS011;21768;48.562;13.414;2022-09-09T16:46:55;12.10;;;5.72;;
35648;SDS011;21768;48.562;13.414;2022-09-09T16:49:21;7.70;;;4.90;;
35648;SDS011;21768;48.562;13.414;2022-09-09T16:51:47;9.75;;;5.22;;
35648;SDS011;21768;48.562;13.414;2022-09-09T16:54:14;8.80;;;5.35;;
35648;SDS011;21768;48.562;13.414;2022-09-09T16:56:42;29.90;;;19.92;;
35648;SDS011;21768;48.562;13.414;2022-09-09T16:59:11;8.68;;;5.95;;
35648;SDS011;21768;48.562;13.414;2022-09-09T17:01:38;6.45;;;4.70;;
35648;SDS011;21768;48.562;13.414;2022-09-09T17:04:07;8.68;;;4.80;;
35648;SDS011;21768;48.562;13.414;2022-09-09T17:06:35;7.72;;;4.43;;
35648;SDS011;21768;48.562;13.414;2022-09-09T17:09:06;11.68;;;4.78;;
35648;SDS011;21768;48.562;13.414;2022-09-09T17:11:33;9.70;;;4.95;;